createdAt,value
2022-08-19T00:02:13.382Z,6.03
2022-08-19T00:04:47.644Z,7.27
2022-08-19T00:07:22.349Z,6.05
2022-08-19T00:09:54.954Z,5.80
2022-08-19T00:12:30.423Z,6.62
2022-08-19T00:15:02.863Z,6.57
2022-08-19T00:17:35.638Z,5.92
2022-08-19T00:20:11.937Z,6.87
2022-08-19T00:22:45.470Z,6.55
2022-08-19T00:25:19.322Z,6.12
2022-08-19T00:27:53.478Z,6.20
2022-08-19T00:30:27.074Z,5.45
2022-08-19T00:33:11.143Z,6.47
2022-08-19T00:35:43.984Z,6.43
2022-08-19T00:38:16.435Z,6.85
2022-08-19T00:40:51.401Z,6.70
2022-08-19T00:43:26.472Z,6.05
2022-08-19T00:45:58.862Z,6.37
2022-08-19T00:48:31.495Z,5.65
2022-08-19T00:51:03.916Z,5.75
2022-08-19T00:53:36.609Z,6.87
2022-08-19T00:56:09.769Z,6.72
2022-08-19T00:58:42.584Z,6.67
2022-08-19T01:01:15.575Z,6.12
2022-08-19T01:03:56.774Z,6.55
2022-08-19T01:06:22.785Z,6.87
2022-08-19T01:08:56.540Z,6.67
2022-08-19T01:11:34.943Z,6.97
2022-08-19T01:14:07.454Z,6.58
2022-08-19T01:16:40.728Z,6.80
2022-08-19T01:19:30.800Z,7.53
2022-08-19T01:22:32.892Z,7.12
2022-08-19T01:25:01.259Z,5.83
2022-08-19T01:27:43.866Z,7.00
2022-08-19T01:30:23.788Z,7.10
2022-08-19T01:32:57.563Z,7.03
2022-08-19T01:35:32.582Z,7.05
2022-08-19T01:40:45.024Z,6.92
2022-08-19T01:43:17.444Z,7.58
2022-08-19T01:45:49.853Z,7.37
2022-08-19T01:48:23.064Z,7.45
2022-08-19T01:50:55.623Z,6.60
2022-08-19T01:53:33.583Z,6.80
2022-08-19T01:56:02.681Z,7.00
2022-08-19T01:58:42.575Z,6.92
2022-08-19T02:01:15.274Z,7.15
2022-08-19T02:03:48.594Z,7.30
2022-08-19T02:06:21.473Z,7.47
2022-08-19T02:08:57.358Z,7.10
2022-08-19T02:11:40.613Z,7.87
2022-08-19T02:14:13.073Z,6.83
2022-08-19T02:16:46.294Z,7.78
2022-08-19T02:19:19.114Z,7.12
2022-08-19T02:21:51.592Z,7.42
2022-08-19T02:24:23.978Z,6.60
2022-08-19T02:26:57.622Z,7.83
2022-08-19T02:29:31.046Z,7.40
2022-08-19T02:32:03.579Z,6.95
2022-08-19T02:34:36.609Z,7.30
2022-08-19T02:37:10.691Z,7.28
2022-08-19T02:39:43.185Z,7.20
2022-08-19T02:42:15.705Z,7.42
2022-08-19T02:44:50.058Z,6.83
2022-08-19T02:47:22.475Z,6.93
2022-08-19T02:49:56.408Z,6.58
2022-08-19T02:52:29.806Z,7.00
2022-08-19T02:55:02.604Z,6.72
2022-08-19T02:57:35.508Z,6.80
2022-08-19T03:00:12.806Z,7.47
2022-08-19T03:02:45.851Z,7.12
2022-08-19T03:05:18.401Z,8.30
2022-08-19T03:07:53.700Z,7.95
2022-08-19T03:10:26.588Z,6.95
2022-08-19T03:12:59.793Z,6.85
2022-08-19T03:18:06.391Z,7.20
2022-08-19T03:20:49.982Z,7.70
2022-08-19T03:23:22.721Z,7.03
2022-08-19T03:25:58.291Z,6.75
2022-08-19T03:28:29.892Z,6.58
2022-08-19T03:31:06.325Z,6.70
2022-08-19T03:33:41.466Z,7.28
2022-08-19T03:36:24.317Z,7.20
2022-08-19T03:39:00.239Z,7.40
2022-08-19T03:41:45.792Z,6.25
2022-08-19T03:44:12.740Z,6.58
2022-08-19T03:46:45.887Z,6.83
2022-08-19T03:49:19.897Z,6.75
2022-08-19T03:51:52.573Z,7.00
2022-08-19T03:54:26.130Z,6.10
2022-08-19T03:56:58.989Z,6.40
2022-08-19T03:59:35.552Z,6.00
2022-08-19T04:02:13.277Z,6.75
2022-08-19T04:04:46.210Z,6.40
2022-08-19T04:07:21.556Z,6.55
2022-08-19T04:09:54.520Z,6.10
2022-08-19T04:12:27.088Z,6.80
2022-08-19T04:14:59.615Z,5.90
2022-08-19T04:17:33.280Z,6.92
2022-08-19T04:20:07.270Z,10.98
2022-08-19T04:22:39.912Z,6.45
2022-08-19T04:25:13.323Z,6.65
2022-08-19T04:27:47.506Z,7.08
2022-08-19T04:30:22.199Z,6.05
2022-08-19T04:32:54.962Z,6.50
2022-08-19T04:35:27.569Z,6.78
2022-08-19T04:38:00.150Z,6.42
2022-08-19T04:40:49.925Z,6.70
2022-08-19T04:43:24.134Z,6.35
2022-08-19T04:46:00.853Z,6.05
2022-08-19T04:48:32.961Z,6.22
2022-08-19T04:51:11.392Z,7.22
2022-08-19T04:53:44.128Z,6.70
2022-08-19T04:56:18.428Z,6.15
2022-08-19T04:58:52.626Z,7.10
2022-08-19T05:01:29.404Z,6.47
2022-08-19T05:04:06.657Z,5.67
2022-08-19T05:06:40.218Z,7.42
2022-08-19T05:09:12.808Z,8.85
2022-08-19T05:11:45.335Z,6.75
2022-08-19T05:14:17.824Z,6.60
2022-08-19T05:16:53.573Z,7.20
2022-08-19T05:19:42.075Z,6.50
2022-08-19T05:22:32.476Z,6.10
2022-08-19T05:25:13.790Z,8.28
2022-08-19T05:27:47.531Z,6.75
2022-08-19T05:30:24.520Z,6.10
2022-08-19T05:32:56.560Z,6.15
2022-08-19T05:35:29.549Z,5.33
2022-08-19T05:38:03.675Z,6.47
2022-08-19T05:40:41.130Z,5.95
2022-08-19T05:43:15.615Z,5.75
2022-08-19T05:45:48.151Z,5.72
2022-08-19T05:48:21.673Z,6.00
2022-08-19T05:50:54.197Z,5.60
2022-08-19T05:53:27.414Z,5.67
2022-08-19T05:56:00.397Z,5.15
2022-08-19T05:58:34.096Z,5.90
2022-08-19T06:01:28.732Z,7.10
2022-08-19T06:04:01.107Z,5.70
2022-08-19T06:06:36.324Z,5.65
2022-08-19T06:09:12.151Z,5.80
2022-08-19T06:11:54.099Z,5.33
2022-08-19T06:14:28.878Z,6.17
2022-08-19T06:17:06.788Z,5.60
2022-08-19T06:19:40.926Z,6.08
2022-08-19T06:22:14.228Z,5.33
2022-08-19T06:24:47.723Z,5.85
2022-08-19T06:27:21.322Z,9.50
2022-08-19T06:29:55.248Z,6.25
2022-08-19T06:32:28.741Z,7.00
2022-08-19T06:35:01.784Z,6.42
2022-08-19T06:37:34.879Z,5.93
2022-08-19T06:40:09.688Z,6.10
2022-08-19T06:42:45.221Z,5.42
2022-08-19T06:47:49.301Z,5.42
2022-08-19T06:52:56.436Z,5.37
2022-08-19T06:55:31.020Z,5.83
2022-08-19T06:58:06.504Z,5.45
2022-08-19T07:00:38.924Z,6.83
2022-08-19T07:03:13.259Z,5.55
2022-08-19T07:05:47.325Z,6.03
2022-08-19T07:08:20.257Z,4.73
2022-08-19T07:10:52.852Z,5.35
2022-08-19T07:13:26.626Z,5.80
2022-08-19T07:15:59.094Z,5.58
2022-08-19T07:21:12.148Z,5.85
2022-08-19T07:23:46.259Z,5.55
2022-08-19T07:29:17.098Z,6.53
2022-08-19T07:31:52.137Z,5.78
2022-08-19T07:34:26.477Z,5.12
2022-08-19T07:36:58.986Z,11.22
2022-08-19T07:39:34.615Z,13.18
2022-08-19T07:42:11.086Z,10.78
2022-08-19T07:44:55.125Z,6.78
2022-08-19T07:47:48.122Z,6.37
2022-08-19T07:50:05.810Z,6.30
2022-08-19T07:52:40.797Z,5.87
2022-08-19T07:55:40.126Z,4.75
2022-08-19T07:57:48.869Z,5.05
2022-08-19T08:00:23.926Z,5.62
2022-08-19T08:02:56.441Z,5.53
2022-08-19T08:05:46.819Z,5.50
2022-08-19T08:08:27.652Z,6.30
2022-08-19T08:10:59.309Z,5.75
2022-08-19T08:13:31.718Z,5.33
2022-08-19T08:16:04.801Z,5.60
2022-08-19T08:18:40.861Z,5.42
2022-08-19T08:21:13.437Z,5.20
2022-08-19T08:23:45.964Z,5.42
2022-08-19T08:26:19.376Z,5.78
2022-08-19T08:28:52.127Z,5.50
2022-08-19T08:31:24.712Z,5.72
2022-08-19T08:33:58.173Z,5.67
2022-08-19T08:36:33.524Z,5.58
2022-08-19T08:39:05.996Z,5.40
2022-08-19T08:42:17.804Z,5.15
2022-08-19T08:47:33.721Z,5.45
2022-08-19T08:50:16.941Z,5.25
2022-08-19T08:52:53.270Z,5.37
2022-08-19T08:55:37.116Z,5.60
2022-08-19T08:58:29.541Z,5.40
2022-08-19T09:01:02.098Z,5.55
2022-08-19T09:03:34.577Z,5.58
2022-08-19T09:06:18.375Z,5.05
2022-08-19T09:09:12.125Z,5.37
2022-08-19T09:12:14.947Z,5.37
2022-08-19T09:14:55.361Z,5.75
2022-08-19T09:17:32.333Z,5.30
2022-08-19T09:20:10.526Z,5.10
2022-08-19T09:22:47.906Z,5.10
2022-08-19T09:25:26.629Z,5.45
2022-08-19T09:28:02.734Z,5.00
2022-08-19T09:30:43.210Z,5.30
2022-08-19T09:33:17.238Z,5.50
2022-08-19T09:35:53.270Z,5.37
2022-08-19T09:38:24.760Z,5.03
2022-08-19T09:40:58.757Z,5.33
2022-08-19T09:43:33.868Z,6.25
2022-08-19T09:46:10.498Z,6.10
2022-08-19T09:48:43.696Z,6.65
2022-08-19T09:51:18.698Z,9.73
2022-08-19T09:53:54.734Z,6.00
2022-08-19T09:56:28.328Z,6.42
2022-08-19T09:59:02.608Z,5.42
2022-08-19T10:01:35.774Z,5.40
2022-08-19T10:04:19.982Z,5.30
2022-08-19T10:06:47.013Z,4.90
2022-08-19T10:09:26.161Z,5.45
2022-08-19T10:11:55.225Z,4.87
2022-08-19T10:14:28.747Z,5.05
2022-08-19T10:17:01.951Z,5.50
2022-08-19T10:19:37.418Z,5.10
2022-08-19T10:22:10.116Z,5.58
2022-08-19T10:24:44.577Z,5.30
2022-08-19T10:27:17.020Z,4.97
2022-08-19T10:29:49.392Z,5.53
2022-08-19T10:32:33.807Z,5.70
2022-08-19T10:34:58.544Z,5.28
2022-08-19T10:37:32.485Z,5.17
2022-08-19T10:42:39.369Z,4.92
2022-08-19T10:45:12.521Z,4.90
2022-08-19T10:47:45.065Z,5.30
2022-08-19T10:50:36.736Z,4.53
2022-08-19T10:53:11.565Z,5.33
2022-08-19T10:56:04.297Z,5.03
2022-08-19T10:58:36.840Z,4.30
2022-08-19T11:01:09.667Z,6.30
2022-08-19T11:03:42.528Z,5.60
2022-08-19T11:06:15.687Z,5.40
2022-08-19T11:08:48.559Z,4.60
2022-08-19T11:11:21.520Z,4.67
2022-08-19T11:13:54.188Z,4.35
2022-08-19T11:16:29.910Z,3.85
2022-08-19T11:19:04.127Z,5.08
2022-08-19T11:21:43.166Z,5.25
2022-08-19T11:24:19.317Z,4.53
2022-08-19T11:26:56.643Z,4.35
2022-08-19T11:29:29.279Z,5.12
2022-08-19T11:32:03.833Z,4.62
2022-08-19T11:34:38.794Z,4.67
2022-08-19T11:37:14.654Z,4.67
2022-08-19T11:39:53.301Z,4.80
2022-08-19T11:42:40.090Z,4.87
2022-08-19T11:45:13.756Z,5.03
2022-08-19T11:50:20.177Z,5.20
2022-08-19T11:52:55.249Z,4.78
2022-08-19T11:55:27.835Z,4.83
2022-08-19T11:58:00.813Z,5.42
2022-08-19T12:00:36.685Z,5.17
2022-08-19T12:03:09.712Z,3.98
2022-08-19T12:05:42.954Z,4.87
2022-08-19T12:08:16.509Z,4.50
2022-08-19T12:10:49.898Z,4.57
2022-08-19T12:13:22.546Z,4.70
2022-08-19T12:15:55.860Z,4.95
2022-08-19T12:18:28.473Z,5.17
2022-08-19T12:21:01.695Z,5.42
2022-08-19T12:23:34.903Z,6.60
2022-08-19T12:26:07.522Z,6.40
2022-08-19T12:28:40.782Z,5.70
2022-08-19T12:31:13.281Z,6.72
2022-08-19T12:33:46.854Z,5.03
2022-08-19T12:36:19.349Z,5.05
2022-08-19T12:38:52.863Z,5.37
2022-08-19T12:41:25.531Z,5.08
2022-08-19T12:43:59.410Z,5.12
2022-08-19T12:46:33.833Z,5.70
2022-08-19T12:49:20.675Z,4.75
2022-08-19T12:51:41.275Z,5.35
2022-08-19T12:54:14.206Z,5.40
2022-08-19T12:56:47.651Z,6.05
2022-08-19T12:59:21.937Z,6.87
2022-08-19T13:01:54.695Z,6.08
2022-08-19T13:04:27.394Z,5.62
2022-08-19T13:07:00.486Z,5.40
2022-08-19T13:09:33.687Z,5.63
2022-08-19T13:12:09.529Z,5.80
2022-08-19T13:14:43.553Z,5.35
2022-08-19T13:17:16.589Z,6.53
2022-08-19T13:19:50.430Z,5.95
2022-08-19T13:22:23.149Z,5.60
2022-08-19T13:24:55.762Z,6.12
2022-08-19T13:27:28.145Z,5.30
2022-08-19T13:30:18.499Z,5.83
2022-08-19T13:33:09.131Z,5.58
2022-08-19T13:35:51.104Z,5.20
2022-08-19T13:38:24.088Z,5.92
2022-08-19T13:40:58.002Z,6.30
2022-08-19T13:43:31.297Z,6.03
2022-08-19T13:46:08.067Z,6.15
2022-08-19T13:48:42.213Z,6.20
2022-08-19T13:51:18.148Z,7.83
2022-08-19T13:53:51.739Z,5.78
2022-08-19T13:56:26.744Z,5.67
2022-08-19T13:58:59.342Z,5.25
2022-08-19T14:01:32.199Z,5.30
2022-08-19T14:04:06.480Z,5.55
2022-08-19T14:06:40.183Z,5.72
2022-08-19T14:09:13.591Z,6.07
2022-08-19T14:11:48.234Z,5.55
2022-08-19T14:14:20.619Z,5.50
2022-08-19T14:16:53.267Z,5.97
2022-08-19T14:19:26.156Z,5.47
2022-08-19T14:22:01.874Z,6.55
2022-08-19T14:24:34.737Z,5.12
2022-08-19T14:27:08.766Z,5.00
2022-08-19T14:29:42.857Z,5.15
2022-08-19T14:32:16.882Z,5.30
2022-08-19T14:34:49.970Z,5.45
2022-08-19T14:37:24.302Z,5.45
2022-08-19T14:39:57.368Z,5.60
2022-08-19T14:42:29.844Z,6.70
2022-08-19T14:45:02.831Z,6.22
2022-08-19T14:47:35.665Z,5.33
2022-08-19T14:50:17.927Z,5.78
2022-08-19T14:52:46.497Z,5.53
2022-08-19T14:55:19.520Z,5.87
2022-08-19T14:57:52.393Z,6.03
2022-08-19T15:00:25.155Z,5.87
2022-08-19T15:02:59.124Z,6.17
2022-08-19T15:05:32.631Z,5.50
2022-08-19T15:08:08.919Z,5.40
2022-08-19T15:10:42.699Z,5.83
2022-08-19T15:13:15.889Z,7.37
2022-08-19T15:15:50.041Z,6.35
2022-08-19T15:18:22.868Z,6.15
2022-08-19T15:20:57.165Z,5.55
2022-08-19T15:23:29.669Z,9.18
2022-08-19T15:26:03.012Z,5.47
2022-08-19T15:28:36.131Z,6.47
2022-08-19T15:31:09.629Z,6.58
2022-08-19T15:33:45.400Z,6.03
2022-08-19T15:36:18.906Z,6.50
2022-08-19T15:38:53.436Z,5.43
2022-08-19T15:41:30.859Z,5.92
2022-08-19T15:44:10.497Z,6.00
2022-08-19T15:46:44.793Z,5.90
2022-08-19T15:49:19.102Z,6.40
2022-08-19T15:51:54.422Z,5.00
2022-08-19T15:54:27.486Z,5.55
2022-08-19T15:57:17.359Z,5.95
2022-08-19T16:00:08.298Z,6.35
2022-08-19T16:03:00.223Z,5.90
2022-08-19T16:05:50.966Z,6.72
2022-08-19T16:08:24.458Z,8.35
2022-08-19T16:10:57.488Z,6.17
2022-08-19T16:13:30.057Z,6.10
2022-08-19T16:16:02.706Z,5.37
2022-08-19T16:18:37.478Z,6.80
2022-08-19T16:23:42.165Z,5.78
2022-08-19T16:26:16.747Z,6.28
2022-08-19T16:28:49.609Z,5.97
2022-08-19T16:31:24.152Z,5.97
2022-08-19T16:33:57.039Z,7.03
2022-08-19T16:36:31.558Z,5.95
2022-08-19T16:39:04.516Z,5.60
2022-08-19T16:41:38.157Z,6.67
2022-08-19T16:44:12.339Z,6.70
2022-08-19T16:46:58.422Z,6.03
2022-08-19T16:49:54.190Z,6.10
2022-08-19T16:52:01.883Z,5.67
2022-08-19T16:54:35.992Z,6.22
2022-08-19T16:57:08.894Z,8.23
2022-08-19T16:59:48.829Z,8.65
2022-08-19T17:02:22.066Z,5.65
2022-08-19T17:04:58.741Z,5.12
2022-08-19T17:07:33.080Z,5.12
2022-08-19T17:10:05.827Z,5.17
2022-08-19T17:12:39.721Z,6.05
2022-08-19T17:15:12.650Z,4.67
2022-08-19T17:17:45.396Z,5.00
2022-08-19T17:20:17.754Z,5.00
2022-08-19T17:22:50.837Z,5.12
2022-08-19T17:25:26.689Z,4.25
2022-08-19T17:28:00.041Z,4.08
2022-08-19T17:30:32.637Z,4.10
2022-08-19T17:33:06.123Z,4.62
2022-08-19T17:35:40.949Z,4.10
2022-08-19T17:38:19.560Z,4.00
2022-08-19T17:40:53.090Z,4.28
2022-08-19T17:43:32.569Z,4.37
2022-08-19T17:46:03.454Z,4.40
2022-08-19T17:48:38.288Z,3.92
2022-08-19T17:51:22.548Z,4.00
2022-08-19T17:53:55.487Z,3.50
2022-08-19T17:56:28.908Z,3.85
2022-08-19T17:59:01.808Z,4.57
2022-08-19T18:01:52.335Z,4.17
2022-08-19T18:06:46.636Z,4.25
2022-08-19T18:09:17.998Z,5.03
2022-08-19T18:11:53.859Z,4.30
2022-08-19T18:14:33.763Z,5.47
2022-08-19T18:17:09.116Z,6.67
2022-08-19T18:19:44.138Z,10.40
2022-08-19T18:22:30.689Z,5.15
2022-08-19T18:25:04.694Z,7.22
2022-08-19T18:27:38.805Z,4.62
2022-08-19T18:30:12.775Z,5.33
2022-08-19T18:35:26.374Z,4.00
2022-08-19T18:38:01.774Z,5.05
2022-08-19T18:40:53.582Z,5.30
2022-08-19T18:43:44.194Z,4.72
2022-08-19T18:46:36.818Z,4.25
2022-08-19T18:49:11.065Z,6.92
2022-08-19T18:51:43.631Z,5.10
2022-08-19T18:54:16.004Z,4.58
2022-08-19T18:56:48.355Z,5.17
2022-08-19T18:59:27.149Z,4.55
2022-08-19T19:02:00.872Z,4.58
2022-08-19T19:04:37.457Z,5.87
2022-08-19T19:07:11.488Z,6.15
2022-08-19T19:09:44.488Z,6.78
2022-08-19T19:12:18.849Z,4.80
2022-08-19T19:14:52.330Z,5.75
2022-08-19T19:17:26.906Z,4.65
2022-08-19T19:19:59.480Z,4.80
2022-08-19T19:22:32.049Z,4.53
2022-08-19T19:25:05.857Z,5.20
2022-08-19T19:27:40.613Z,4.67
2022-08-19T19:30:14.088Z,3.90
2022-08-19T19:32:47.280Z,3.85
2022-08-19T19:35:19.653Z,4.03
2022-08-19T19:37:52.926Z,4.35
2022-08-19T19:40:26.794Z,5.10
2022-08-19T19:43:00.356Z,4.30
2022-08-19T19:45:34.657Z,7.35
2022-08-19T19:48:09.636Z,5.30
2022-08-19T19:53:18.346Z,5.50
2022-08-19T19:55:52.975Z,5.40
2022-08-19T20:01:01.413Z,4.40
2022-08-19T20:03:37.637Z,4.55
2022-08-19T20:06:11.561Z,4.30
2022-08-19T20:09:02.044Z,4.58
2022-08-19T20:11:50.150Z,5.33
2022-08-19T20:14:27.819Z,4.85
2022-08-19T20:17:00.780Z,4.03
2022-08-19T20:19:36.282Z,4.05
2022-08-19T20:22:09.102Z,5.55
2022-08-19T20:24:42.842Z,4.72
2022-08-19T20:27:15.450Z,6.00
2022-08-19T20:29:49.640Z,5.03
2022-08-19T20:32:23.713Z,5.25
2022-08-19T20:34:56.116Z,4.58
2022-08-19T20:37:28.724Z,7.08
2022-08-19T20:40:01.153Z,5.12
2022-08-19T20:42:35.241Z,5.90
2022-08-19T20:45:09.866Z,5.10
2022-08-19T20:47:44.684Z,7.08
2022-08-19T20:50:17.974Z,5.80
2022-08-19T20:52:53.701Z,7.08
2022-08-19T20:57:58.797Z,5.50
2022-08-19T21:00:31.401Z,4.42
2022-08-19T21:03:04.029Z,4.28
2022-08-19T21:05:38.231Z,4.22
2022-08-19T21:08:11.049Z,4.42
2022-08-19T21:10:44.783Z,4.60
2022-08-19T21:13:18.390Z,4.72
2022-08-19T21:15:51.619Z,5.05
2022-08-19T21:18:26.874Z,3.83
2022-08-19T21:20:59.339Z,4.87
2022-08-19T21:23:33.123Z,3.70
2022-08-19T21:26:07.575Z,4.30
2022-08-19T21:28:39.991Z,4.08
2022-08-19T21:31:13.639Z,4.42
2022-08-19T21:33:47.071Z,3.72
2022-08-19T21:36:19.658Z,4.53
2022-08-19T21:38:52.205Z,4.33
2022-08-19T21:41:24.712Z,7.15
2022-08-19T21:43:57.173Z,5.83
2022-08-19T21:46:32.562Z,5.05
2022-08-19T21:49:05.453Z,5.05
2022-08-19T21:51:38.617Z,4.55
2022-08-19T21:54:14.019Z,4.10
2022-08-19T21:56:45.697Z,4.50
2022-08-19T21:59:18.228Z,4.58
2022-08-19T22:02:05.704Z,4.28
2022-08-19T22:04:26.731Z,4.47
2022-08-19T22:06:59.391Z,4.45
2022-08-19T22:09:31.978Z,4.10
2022-08-19T22:12:05.462Z,4.55
2022-08-19T22:15:00.074Z,5.12
2022-08-19T22:17:32.892Z,4.55
2022-08-19T22:20:10.249Z,4.12
2022-08-19T22:22:49.461Z,5.03
2022-08-19T22:25:46.687Z,4.28
2022-08-19T22:28:27.556Z,4.17
2022-08-19T22:33:29.014Z,4.60
2022-08-19T22:36:02.597Z,4.60
2022-08-19T22:38:35.880Z,3.70
2022-08-19T22:41:08.454Z,4.30
2022-08-19T22:43:41.479Z,4.90
2022-08-19T22:46:16.930Z,4.67
2022-08-19T22:48:48.460Z,4.00
2022-08-19T22:51:40.752Z,3.50
2022-08-19T22:54:13.672Z,3.95
2022-08-19T22:56:47.501Z,4.08
2022-08-19T22:59:20.330Z,3.70
2022-08-19T23:01:55.012Z,3.50
2022-08-19T23:04:31.118Z,3.80
2022-08-19T23:07:03.568Z,3.40
2022-08-19T23:09:36.020Z,3.50
2022-08-19T23:14:44.731Z,3.45
2022-08-19T23:17:17.652Z,3.20
2022-08-19T23:19:53.674Z,3.47
2022-08-19T23:22:27.136Z,3.50
2022-08-19T23:25:07.077Z,3.33
2022-08-19T23:27:58.289Z,3.30
2022-08-19T23:30:31.484Z,3.33
2022-08-19T23:33:12.918Z,3.42
2022-08-19T23:35:44.835Z,2.95
2022-08-19T23:38:19.670Z,3.35
2022-08-19T23:40:53.547Z,3.22
2022-08-19T23:43:28.692Z,3.42
2022-08-19T23:46:10.418Z,3.42
2022-08-19T23:48:39.897Z,3.22
2022-08-19T23:51:13.064Z,3.10
2022-08-19T23:53:45.586Z,3.40
2022-08-19T23:56:18.510Z,3.55
2022-08-19T23:58:51.149Z,3.30
